sensor_id;sensor_type;location;lat;lon;timestamp;P1;durP1;ratioP1;P2;durP2;ratioP2
70169;SDS011;57543;45.442;9.212;2022-09-09T00:01:36;12.90;;;6.72;;
70169;SDS011;57543;45.442;9.212;2022-09-09T00:04:58;13.40;;;7.10;;
70169;SDS011;57543;45.442;9.212;2022-09-09T00:08:07;11.93;;;7.38;;
70169;SDS011;57543;45.442;9.212;2022-09-09T00:11:24;16.27;;;7.95;;
70169;SDS011;57543;45.442;9.212;2022-09-09T00:14:45;14.05;;;8.30;;
70169;SDS011;57543;45.442;9.212;2022-09-09T00:21:33;13.40;;;6.93;;
70169;SDS011;57543;45.442;9.212;2022-09-09T00:24:46;11.85;;;7.18;;
70169;SDS011;57543;45.442;9.212;2022-09-09T00:27:56;11.68;;;7.47;;
70169;SDS011;57543;45.442;9.212;2022-09-09T00:31:13;12.00;;;7.20;;
70169;SDS011;57543;45.442;9.212;2022-09-09T00:34:23;11.43;;;6.88;;
70169;SDS011;57543;45.442;9.212;2022-09-09T00:37:29;11.50;;;7.20;;
70169;SDS011;57543;45.442;9.212;2022-09-09T00:40:35;11.20;;;7.05;;
70169;SDS011;57543;45.442;9.212;2022-09-09T00:44:06;13.85;;;7.75;;
70169;SDS011;57543;45.442;9.212;2022-09-09T00:57:33;14.10;;;7.40;;
70169;SDS011;57543;45.442;9.212;2022-09-09T01:00:42;12.00;;;7.18;;
70169;SDS011;57543;45.442;9.212;2022-09-09T01:03:54;15.82;;;8.68;;
70169;SDS011;57543;45.442;9.212;2022-09-09T01:07:04;14.00;;;8.85;;
70169;SDS011;57543;45.442;9.212;2022-09-09T01:10:24;11.93;;;7.00;;
70169;SDS011;57543;45.442;9.212;2022-09-09T01:13:54;13.60;;;8.18;;
70169;SDS011;57543;45.442;9.212;2022-09-09T01:20:23;13.43;;;8.45;;
70169;SDS011;57543;45.442;9.212;2022-09-09T01:27:03;15.83;;;9.47;;
70169;SDS011;57543;45.442;9.212;2022-09-09T01:30:10;15.90;;;9.23;;
70169;SDS011;57543;45.442;9.212;2022-09-09T01:33:17;15.80;;;9.52;;
70169;SDS011;57543;45.442;9.212;2022-09-09T01:36:29;13.55;;;9.25;;
70169;SDS011;57543;45.442;9.212;2022-09-09T01:39:41;16.52;;;9.73;;
70169;SDS011;57543;45.442;9.212;2022-09-09T01:42:49;17.30;;;10.07;;
70169;SDS011;57543;45.442;9.212;2022-09-09T01:45:53;17.30;;;10.15;;
70169;SDS011;57543;45.442;9.212;2022-09-09T01:48:59;20.42;;;10.88;;
70169;SDS011;57543;45.442;9.212;2022-09-09T01:52:06;14.27;;;9.23;;
70169;SDS011;57543;45.442;9.212;2022-09-09T01:55:14;15.75;;;9.43;;
70169;SDS011;57543;45.442;9.212;2022-09-09T02:04:49;18.45;;;10.27;;
70169;SDS011;57543;45.442;9.212;2022-09-09T02:08:00;15.88;;;9.57;;
70169;SDS011;57543;45.442;9.212;2022-09-09T02:11:19;16.00;;;9.40;;
70169;SDS011;57543;45.442;9.212;2022-09-09T02:14:53;17.97;;;11.47;;
70169;SDS011;57543;45.442;9.212;2022-09-09T02:18:00;17.13;;;9.50;;
70169;SDS011;57543;45.442;9.212;2022-09-09T02:21:12;16.88;;;8.70;;
70169;SDS011;57543;45.442;9.212;2022-09-09T02:24:17;16.42;;;9.43;;
70169;SDS011;57543;45.442;9.212;2022-09-09T02:27:27;19.05;;;11.57;;
70169;SDS011;57543;45.442;9.212;2022-09-09T02:30:31;16.57;;;10.30;;
70169;SDS011;57543;45.442;9.212;2022-09-09T02:33:38;18.13;;;10.90;;
70169;SDS011;57543;45.442;9.212;2022-09-09T02:36:46;15.63;;;9.68;;
70169;SDS011;57543;45.442;9.212;2022-09-09T02:39:52;18.23;;;11.65;;
70169;SDS011;57543;45.442;9.212;2022-09-09T02:42:58;15.60;;;10.02;;
70169;SDS011;57543;45.442;9.212;2022-09-09T02:49:17;18.27;;;10.88;;
70169;SDS011;57543;45.442;9.212;2022-09-09T02:55:59;20.08;;;11.93;;
70169;SDS011;57543;45.442;9.212;2022-09-09T02:59:12;19.48;;;11.82;;
70169;SDS011;57543;45.442;9.212;2022-09-09T03:02:17;22.47;;;11.30;;
70169;SDS011;57543;45.442;9.212;2022-09-09T03:05:25;22.50;;;12.15;;
70169;SDS011;57543;45.442;9.212;2022-09-09T03:08:30;22.17;;;12.32;;
70169;SDS011;57543;45.442;9.212;2022-09-09T03:11:35;19.40;;;11.88;;
70169;SDS011;57543;45.442;9.212;2022-09-09T03:14:39;22.60;;;12.93;;
70169;SDS011;57543;45.442;9.212;2022-09-09T03:17:44;19.83;;;12.47;;
70169;SDS011;57543;45.442;9.212;2022-09-09T03:20:47;21.05;;;11.45;;
70169;SDS011;57543;45.442;9.212;2022-09-09T03:23:52;22.88;;;13.27;;
70169;SDS011;57543;45.442;9.212;2022-09-09T03:26:56;18.95;;;12.15;;
70169;SDS011;57543;45.442;9.212;2022-09-09T03:30:00;21.67;;;12.32;;
70169;SDS011;57543;45.442;9.212;2022-09-09T03:33:07;21.53;;;12.30;;
70169;SDS011;57543;45.442;9.212;2022-09-09T03:36:11;21.30;;;12.50;;
70169;SDS011;57543;45.442;9.212;2022-09-09T03:39:15;21.40;;;12.43;;
70169;SDS011;57543;45.442;9.212;2022-09-09T03:42:20;19.40;;;10.90;;
70169;SDS011;57543;45.442;9.212;2022-09-09T03:45:28;19.60;;;12.27;;
70169;SDS011;57543;45.442;9.212;2022-09-09T03:48:32;22.30;;;12.13;;
70169;SDS011;57543;45.442;9.212;2022-09-09T03:51:37;24.95;;;12.93;;
70169;SDS011;57543;45.442;9.212;2022-09-09T03:54:43;19.67;;;11.32;;
70169;SDS011;57543;45.442;9.212;2022-09-09T03:57:47;22.20;;;11.90;;
70169;SDS011;57543;45.442;9.212;2022-09-09T04:01:25;20.35;;;11.90;;
70169;SDS011;57543;45.442;9.212;2022-09-09T04:04:23;20.37;;;11.27;;
70169;SDS011;57543;45.442;9.212;2022-09-09T04:07:26;18.73;;;10.60;;
70169;SDS011;57543;45.442;9.212;2022-09-09T04:10:31;19.88;;;11.02;;
70169;SDS011;57543;45.442;9.212;2022-09-09T04:13:35;19.67;;;10.27;;
70169;SDS011;57543;45.442;9.212;2022-09-09T04:16:42;17.15;;;9.73;;
70169;SDS011;57543;45.442;9.212;2022-09-09T04:19:48;17.90;;;10.60;;
70169;SDS011;57543;45.442;9.212;2022-09-09T04:22:52;22.25;;;11.00;;
70169;SDS011;57543;45.442;9.212;2022-09-09T04:25:56;19.98;;;10.70;;
70169;SDS011;57543;45.442;9.212;2022-09-09T04:29:01;20.83;;;10.68;;
70169;SDS011;57543;45.442;9.212;2022-09-09T04:32:05;17.58;;;9.50;;
70169;SDS011;57543;45.442;9.212;2022-09-09T04:35:10;20.20;;;11.47;;
70169;SDS011;57543;45.442;9.212;2022-09-09T04:38:14;17.05;;;10.10;;
70169;SDS011;57543;45.442;9.212;2022-09-09T04:41:19;18.48;;;11.30;;
70169;SDS011;57543;45.442;9.212;2022-09-09T04:44:26;20.75;;;11.25;;
70169;SDS011;57543;45.442;9.212;2022-09-09T04:47:31;18.23;;;10.82;;
70169;SDS011;57543;45.442;9.212;2022-09-09T04:50:35;22.17;;;11.43;;
70169;SDS011;57543;45.442;9.212;2022-09-09T04:53:39;19.58;;;11.07;;
70169;SDS011;57543;45.442;9.212;2022-09-09T04:56:46;23.40;;;12.82;;
70169;SDS011;57543;45.442;9.212;2022-09-09T04:59:50;24.02;;;12.32;;
70169;SDS011;57543;45.442;9.212;2022-09-09T05:02:54;20.35;;;11.25;;
70169;SDS011;57543;45.442;9.212;2022-09-09T05:09:09;19.50;;;12.00;;
70169;SDS011;57543;45.442;9.212;2022-09-09T05:12:13;21.23;;;12.05;;
70169;SDS011;57543;45.442;9.212;2022-09-09T05:15:23;21.50;;;11.45;;
70169;SDS011;57543;45.442;9.212;2022-09-09T05:18:27;18.75;;;10.38;;
70169;SDS011;57543;45.442;9.212;2022-09-09T05:21:32;19.37;;;10.10;;
70169;SDS011;57543;45.442;9.212;2022-09-09T05:24:35;19.33;;;9.95;;
70169;SDS011;57543;45.442;9.212;2022-09-09T05:27:41;19.27;;;10.57;;
70169;SDS011;57543;45.442;9.212;2022-09-09T05:30:44;17.00;;;9.75;;
70169;SDS011;57543;45.442;9.212;2022-09-09T05:33:48;16.48;;;9.30;;
70169;SDS011;57543;45.442;9.212;2022-09-09T05:36:55;19.27;;;10.50;;
70169;SDS011;57543;45.442;9.212;2022-09-09T05:40:00;17.75;;;10.05;;
70169;SDS011;57543;45.442;9.212;2022-09-09T05:43:04;16.65;;;8.73;;
70169;SDS011;57543;45.442;9.212;2022-09-09T05:46:09;17.95;;;9.13;;
70169;SDS011;57543;45.442;9.212;2022-09-09T05:49:15;18.40;;;10.15;;
70169;SDS011;57543;45.442;9.212;2022-09-09T05:52:19;22.67;;;11.20;;
70169;SDS011;57543;45.442;9.212;2022-09-09T05:55:23;19.25;;;10.48;;
70169;SDS011;57543;45.442;9.212;2022-09-09T05:58:31;17.23;;;10.07;;
70169;SDS011;57543;45.442;9.212;2022-09-09T06:01:39;15.93;;;9.30;;
70169;SDS011;57543;45.442;9.212;2022-09-09T06:04:44;19.35;;;10.90;;
70169;SDS011;57543;45.442;9.212;2022-09-09T06:07:51;18.97;;;11.00;;
70169;SDS011;57543;45.442;9.212;2022-09-09T06:11:00;18.83;;;10.30;;
70169;SDS011;57543;45.442;9.212;2022-09-09T06:14:07;19.77;;;11.18;;
70169;SDS011;57543;45.442;9.212;2022-09-09T06:17:11;21.92;;;11.93;;
70169;SDS011;57543;45.442;9.212;2022-09-09T06:20:15;19.52;;;11.27;;
70169;SDS011;57543;45.442;9.212;2022-09-09T06:23:19;15.37;;;9.47;;
70169;SDS011;57543;45.442;9.212;2022-09-09T06:26:24;18.88;;;11.45;;
70169;SDS011;57543;45.442;9.212;2022-09-09T06:29:30;22.33;;;12.30;;
70169;SDS011;57543;45.442;9.212;2022-09-09T06:32:34;20.25;;;10.55;;
70169;SDS011;57543;45.442;9.212;2022-09-09T06:35:41;20.45;;;11.68;;
70169;SDS011;57543;45.442;9.212;2022-09-09T06:38:44;18.80;;;10.53;;
70169;SDS011;57543;45.442;9.212;2022-09-09T06:41:50;17.80;;;9.60;;
70169;SDS011;57543;45.442;9.212;2022-09-09T06:45:19;18.77;;;10.60;;
70169;SDS011;57543;45.442;9.212;2022-09-09T06:48:30;17.27;;;9.80;;
70169;SDS011;57543;45.442;9.212;2022-09-09T06:51:35;19.08;;;10.05;;
70169;SDS011;57543;45.442;9.212;2022-09-09T06:54:40;12.67;;;7.30;;
70169;SDS011;57543;45.442;9.212;2022-09-09T06:57:45;12.45;;;5.93;;
70169;SDS011;57543;45.442;9.212;2022-09-09T07:01:06;9.25;;;4.90;;
70169;SDS011;57543;45.442;9.212;2022-09-09T07:04:11;8.57;;;4.22;;
70169;SDS011;57543;45.442;9.212;2022-09-09T07:07:18;8.77;;;3.58;;
70169;SDS011;57543;45.442;9.212;2022-09-09T07:10:23;8.57;;;3.30;;
70169;SDS011;57543;45.442;9.212;2022-09-09T07:13:26;7.32;;;3.20;;
70169;SDS011;57543;45.442;9.212;2022-09-09T07:16:32;6.10;;;2.88;;
70169;SDS011;57543;45.442;9.212;2022-09-09T07:19:37;5.63;;;3.05;;
70169;SDS011;57543;45.442;9.212;2022-09-09T07:22:42;6.35;;;2.63;;
70169;SDS011;57543;45.442;9.212;2022-09-09T07:25:47;5.77;;;2.77;;
70169;SDS011;57543;45.442;9.212;2022-09-09T07:28:53;6.85;;;2.95;;
70169;SDS011;57543;45.442;9.212;2022-09-09T07:32:00;11.40;;;3.13;;
70169;SDS011;57543;45.442;9.212;2022-09-09T07:35:10;6.90;;;2.90;;
70169;SDS011;57543;45.442;9.212;2022-09-09T07:38:15;7.38;;;2.90;;
70169;SDS011;57543;45.442;9.212;2022-09-09T07:41:24;6.37;;;2.73;;
70169;SDS011;57543;45.442;9.212;2022-09-09T07:44:32;9.32;;;2.80;;
70169;SDS011;57543;45.442;9.212;2022-09-09T07:47:45;6.60;;;3.00;;
70169;SDS011;57543;45.442;9.212;2022-09-09T07:50:49;7.80;;;3.05;;
70169;SDS011;57543;45.442;9.212;2022-09-09T07:53:54;5.07;;;2.97;;
70169;SDS011;57543;45.442;9.212;2022-09-09T07:57:01;4.73;;;2.30;;
70169;SDS011;57543;45.442;9.212;2022-09-09T08:00:08;6.68;;;2.50;;
70169;SDS011;57543;45.442;9.212;2022-09-09T08:03:19;6.50;;;2.10;;
70169;SDS011;57543;45.442;9.212;2022-09-09T08:06:26;7.45;;;2.10;;
70169;SDS011;57543;45.442;9.212;2022-09-09T08:09:31;6.22;;;2.03;;
70169;SDS011;57543;45.442;9.212;2022-09-09T08:12:47;4.63;;;1.70;;
70169;SDS011;57543;45.442;9.212;2022-09-09T08:15:50;5.57;;;1.73;;
70169;SDS011;57543;45.442;9.212;2022-09-09T08:18:54;5.60;;;1.90;;
70169;SDS011;57543;45.442;9.212;2022-09-09T08:21:59;3.88;;;1.60;;
70169;SDS011;57543;45.442;9.212;2022-09-09T08:25:05;5.03;;;1.83;;
70169;SDS011;57543;45.442;9.212;2022-09-09T08:28:10;4.33;;;1.50;;
70169;SDS011;57543;45.442;9.212;2022-09-09T08:31:15;4.10;;;1.15;;
70169;SDS011;57543;45.442;9.212;2022-09-09T08:34:21;4.57;;;1.50;;
70169;SDS011;57543;45.442;9.212;2022-09-09T08:37:27;4.45;;;1.73;;
70169;SDS011;57543;45.442;9.212;2022-09-09T08:40:33;5.57;;;1.52;;
70169;SDS011;57543;45.442;9.212;2022-09-09T08:43:46;4.00;;;1.63;;
70169;SDS011;57543;45.442;9.212;2022-09-09T08:47:02;5.22;;;1.60;;
70169;SDS011;57543;45.442;9.212;2022-09-09T08:53:42;5.13;;;1.52;;
70169;SDS011;57543;45.442;9.212;2022-09-09T08:56:56;4.60;;;2.05;;
70169;SDS011;57543;45.442;9.212;2022-09-09T09:00:00;3.80;;;1.50;;
70169;SDS011;57543;45.442;9.212;2022-09-09T09:03:15;3.50;;;1.25;;
70169;SDS011;57543;45.442;9.212;2022-09-09T09:09:38;4.50;;;1.50;;
70169;SDS011;57543;45.442;9.212;2022-09-09T09:12:44;3.83;;;1.25;;
70169;SDS011;57543;45.442;9.212;2022-09-09T09:15:54;3.50;;;1.30;;
70169;SDS011;57543;45.442;9.212;2022-09-09T09:19:03;6.40;;;2.08;;
70169;SDS011;57543;45.442;9.212;2022-09-09T09:22:18;3.80;;;1.35;;
70169;SDS011;57543;45.442;9.212;2022-09-09T09:25:35;3.05;;;1.15;;
70169;SDS011;57543;45.442;9.212;2022-09-09T09:28:43;2.80;;;1.17;;
70169;SDS011;57543;45.442;9.212;2022-09-09T09:31:52;2.20;;;1.10;;
70169;SDS011;57543;45.442;9.212;2022-09-09T09:35:02;4.57;;;1.30;;
70169;SDS011;57543;45.442;9.212;2022-09-09T09:38:16;2.92;;;1.17;;
70169;SDS011;57543;45.442;9.212;2022-09-09T09:41:32;4.80;;;1.25;;
70169;SDS011;57543;45.442;9.212;2022-09-09T09:44:40;3.13;;;1.20;;
70169;SDS011;57543;45.442;9.212;2022-09-09T09:47:59;5.67;;;1.20;;
70169;SDS011;57543;45.442;9.212;2022-09-09T09:51:09;4.50;;;1.35;;
70169;SDS011;57543;45.442;9.212;2022-09-09T09:54:54;3.22;;;1.20;;
70169;SDS011;57543;45.442;9.212;2022-09-09T09:57:51;3.25;;;1.10;;
70169;SDS011;57543;45.442;9.212;2022-09-09T10:00:57;2.78;;;1.10;;
70169;SDS011;57543;45.442;9.212;2022-09-09T10:04:17;3.30;;;1.10;;
70169;SDS011;57543;45.442;9.212;2022-09-09T10:07:24;3.00;;;1.30;;
70169;SDS011;57543;45.442;9.212;2022-09-09T10:10:35;3.22;;;1.33;;
70169;SDS011;57543;45.442;9.212;2022-09-09T10:14:05;5.30;;;1.40;;
70169;SDS011;57543;45.442;9.212;2022-09-09T10:23:54;3.28;;;1.30;;
70169;SDS011;57543;45.442;9.212;2022-09-09T10:30:50;3.55;;;1.30;;
70169;SDS011;57543;45.442;9.212;2022-09-09T10:34:33;3.78;;;1.40;;
70169;SDS011;57543;45.442;9.212;2022-09-09T10:41:11;3.83;;;1.40;;
70169;SDS011;57543;45.442;9.212;2022-09-09T11:00:40;4.35;;;1.70;;
70169;SDS011;57543;45.442;9.212;2022-09-09T11:03:52;3.00;;;1.27;;
70169;SDS011;57543;45.442;9.212;2022-09-09T11:07:00;3.05;;;1.10;;
70169;SDS011;57543;45.442;9.212;2022-09-09T11:10:16;3.37;;;1.23;;
70169;SDS011;57543;45.442;9.212;2022-09-09T11:19:53;3.42;;;1.27;;
70169;SDS011;57543;45.442;9.212;2022-09-09T11:23:03;3.20;;;1.50;;
70169;SDS011;57543;45.442;9.212;2022-09-09T11:26:23;3.43;;;1.30;;
70169;SDS011;57543;45.442;9.212;2022-09-09T11:36:53;3.63;;;1.17;;
70169;SDS011;57543;45.442;9.212;2022-09-09T11:40:23;3.78;;;1.50;;
70169;SDS011;57543;45.442;9.212;2022-09-09T11:43:30;3.30;;;1.20;;
70169;SDS011;57543;45.442;9.212;2022-09-09T11:46:37;3.67;;;1.50;;
70169;SDS011;57543;45.442;9.212;2022-09-09T11:49:42;3.72;;;1.60;;
70169;SDS011;57543;45.442;9.212;2022-09-09T11:52:47;4.40;;;1.48;;
70169;SDS011;57543;45.442;9.212;2022-09-09T11:59:19;4.13;;;1.20;;
70169;SDS011;57543;45.442;9.212;2022-09-09T12:02:27;4.43;;;1.38;;
70169;SDS011;57543;45.442;9.212;2022-09-09T12:05:44;3.67;;;1.30;;
70169;SDS011;57543;45.442;9.212;2022-09-09T12:08:50;3.55;;;1.25;;
70169;SDS011;57543;45.442;9.212;2022-09-09T12:12:20;4.45;;;1.40;;
70169;SDS011;57543;45.442;9.212;2022-09-09T12:15:27;3.77;;;1.40;;
70169;SDS011;57543;45.442;9.212;2022-09-09T12:18:33;4.10;;;1.50;;
70169;SDS011;57543;45.442;9.212;2022-09-09T12:21:42;4.93;;;1.48;;
70169;SDS011;57543;45.442;9.212;2022-09-09T12:24:56;4.25;;;1.40;;
70169;SDS011;57543;45.442;9.212;2022-09-09T12:28:22;4.45;;;1.63;;
70169;SDS011;57543;45.442;9.212;2022-09-09T12:35:20;3.45;;;1.40;;
70169;SDS011;57543;45.442;9.212;2022-09-09T12:38:31;4.97;;;1.70;;
70169;SDS011;57543;45.442;9.212;2022-09-09T12:41:39;3.85;;;1.42;;
70169;SDS011;57543;45.442;9.212;2022-09-09T12:44:50;4.55;;;1.80;;
70169;SDS011;57543;45.442;9.212;2022-09-09T12:51:05;3.67;;;1.70;;
70169;SDS011;57543;45.442;9.212;2022-09-09T12:54:20;3.63;;;1.67;;
70169;SDS011;57543;45.442;9.212;2022-09-09T12:57:24;3.47;;;1.88;;
70169;SDS011;57543;45.442;9.212;2022-09-09T13:00:29;5.40;;;1.90;;
70169;SDS011;57543;45.442;9.212;2022-09-09T13:03:33;4.93;;;1.67;;
70169;SDS011;57543;45.442;9.212;2022-09-09T13:06:46;3.08;;;1.52;;
70169;SDS011;57543;45.442;9.212;2022-09-09T13:09:49;3.90;;;1.50;;
70169;SDS011;57543;45.442;9.212;2022-09-09T13:12:53;4.30;;;1.70;;
70169;SDS011;57543;45.442;9.212;2022-09-09T13:15:58;4.28;;;1.80;;
70169;SDS011;57543;45.442;9.212;2022-09-09T13:19:21;4.77;;;1.60;;
70169;SDS011;57543;45.442;9.212;2022-09-09T13:22:32;4.60;;;1.77;;
70169;SDS011;57543;45.442;9.212;2022-09-09T13:25:38;4.43;;;1.70;;
70169;SDS011;57543;45.442;9.212;2022-09-09T13:28:42;4.25;;;1.77;;
70169;SDS011;57543;45.442;9.212;2022-09-09T13:31:46;5.05;;;1.70;;
70169;SDS011;57543;45.442;9.212;2022-09-09T13:34:57;5.23;;;1.80;;
70169;SDS011;57543;45.442;9.212;2022-09-09T13:38:08;3.80;;;1.88;;
70169;SDS011;57543;45.442;9.212;2022-09-09T13:41:18;4.30;;;1.60;;
70169;SDS011;57543;45.442;9.212;2022-09-09T13:44:28;3.40;;;1.70;;
70169;SDS011;57543;45.442;9.212;2022-09-09T13:47:35;4.45;;;1.70;;
70169;SDS011;57543;45.442;9.212;2022-09-09T13:50:39;3.90;;;1.90;;
70169;SDS011;57543;45.442;9.212;2022-09-09T13:53:45;5.63;;;2.00;;
70169;SDS011;57543;45.442;9.212;2022-09-09T13:56:49;3.97;;;1.63;;
70169;SDS011;57543;45.442;9.212;2022-09-09T13:59:53;5.85;;;2.17;;
70169;SDS011;57543;45.442;9.212;2022-09-09T14:02:57;4.00;;;1.70;;
70169;SDS011;57543;45.442;9.212;2022-09-09T14:06:03;5.00;;;2.10;;
70169;SDS011;57543;45.442;9.212;2022-09-09T14:09:10;3.40;;;1.70;;
70169;SDS011;57543;45.442;9.212;2022-09-09T14:12:15;4.70;;;2.00;;
70169;SDS011;57543;45.442;9.212;2022-09-09T14:15:20;3.60;;;1.50;;
70169;SDS011;57543;45.442;9.212;2022-09-09T14:18:24;4.25;;;1.73;;
70169;SDS011;57543;45.442;9.212;2022-09-09T14:21:28;4.00;;;1.70;;
70169;SDS011;57543;45.442;9.212;2022-09-09T14:24:32;5.05;;;1.67;;
70169;SDS011;57543;45.442;9.212;2022-09-09T14:27:36;4.32;;;1.80;;
70169;SDS011;57543;45.442;9.212;2022-09-09T14:30:43;6.28;;;2.05;;
70169;SDS011;57543;45.442;9.212;2022-09-09T14:33:50;5.47;;;2.03;;
70169;SDS011;57543;45.442;9.212;2022-09-09T14:36:54;5.13;;;1.80;;
70169;SDS011;57543;45.442;9.212;2022-09-09T14:39:58;7.13;;;2.08;;
70169;SDS011;57543;45.442;9.212;2022-09-09T14:43:01;4.88;;;1.83;;
70169;SDS011;57543;45.442;9.212;2022-09-09T14:46:06;5.50;;;2.13;;
70169;SDS011;57543;45.442;9.212;2022-09-09T14:49:11;5.53;;;2.25;;
70169;SDS011;57543;45.442;9.212;2022-09-09T14:52:15;6.83;;;1.93;;
70169;SDS011;57543;45.442;9.212;2022-09-09T14:55:19;4.57;;;1.90;;
70169;SDS011;57543;45.442;9.212;2022-09-09T14:58:23;4.60;;;2.10;;
70169;SDS011;57543;45.442;9.212;2022-09-09T15:01:27;4.82;;;1.98;;
70169;SDS011;57543;45.442;9.212;2022-09-09T15:04:32;4.78;;;2.05;;
70169;SDS011;57543;45.442;9.212;2022-09-09T15:07:36;4.93;;;2.60;;
70169;SDS011;57543;45.442;9.212;2022-09-09T15:10:41;4.97;;;2.30;;
70169;SDS011;57543;45.442;9.212;2022-09-09T15:13:45;4.18;;;2.22;;
70169;SDS011;57543;45.442;9.212;2022-09-09T15:16:50;4.03;;;2.00;;
70169;SDS011;57543;45.442;9.212;2022-09-09T15:19:54;4.75;;;1.95;;
70169;SDS011;57543;45.442;9.212;2022-09-09T15:22:57;3.70;;;1.97;;
70169;SDS011;57543;45.442;9.212;2022-09-09T15:26:01;4.57;;;1.90;;
70169;SDS011;57543;45.442;9.212;2022-09-09T15:29:06;3.80;;;2.00;;
70169;SDS011;57543;45.442;9.212;2022-09-09T15:32:11;5.22;;;1.95;;
70169;SDS011;57543;45.442;9.212;2022-09-09T15:35:15;4.00;;;1.80;;
70169;SDS011;57543;45.442;9.212;2022-09-09T15:38:19;4.47;;;2.20;;
70169;SDS011;57543;45.442;9.212;2022-09-09T15:41:22;5.43;;;2.13;;
70169;SDS011;57543;45.442;9.212;2022-09-09T15:44:27;5.30;;;2.13;;
70169;SDS011;57543;45.442;9.212;2022-09-09T15:47:31;4.95;;;2.60;;
70169;SDS011;57543;45.442;9.212;2022-09-09T15:54:08;3.93;;;2.20;;
70169;SDS011;57543;45.442;9.212;2022-09-09T15:57:13;5.70;;;2.30;;
70169;SDS011;57543;45.442;9.212;2022-09-09T16:00:17;4.90;;;2.45;;
70169;SDS011;57543;45.442;9.212;2022-09-09T16:03:21;5.70;;;2.30;;
70169;SDS011;57543;45.442;9.212;2022-09-09T16:06:24;5.10;;;2.60;;
70169;SDS011;57543;45.442;9.212;2022-09-09T16:09:31;4.07;;;2.27;;
70169;SDS011;57543;45.442;9.212;2022-09-09T16:12:35;5.32;;;2.40;;
70169;SDS011;57543;45.442;9.212;2022-09-09T16:15:40;4.72;;;2.40;;
70169;SDS011;57543;45.442;9.212;2022-09-09T16:18:44;5.28;;;2.00;;
70169;SDS011;57543;45.442;9.212;2022-09-09T16:21:50;7.57;;;2.47;;
70169;SDS011;57543;45.442;9.212;2022-09-09T16:24:54;3.97;;;2.27;;
70169;SDS011;57543;45.442;9.212;2022-09-09T16:27:57;4.85;;;2.35;;
70169;SDS011;57543;45.442;9.212;2022-09-09T16:31:04;4.20;;;2.17;;
70169;SDS011;57543;45.442;9.212;2022-09-09T16:34:13;3.67;;;2.00;;
70169;SDS011;57543;45.442;9.212;2022-09-09T16:37:18;6.68;;;2.42;;
70169;SDS011;57543;45.442;9.212;2022-09-09T16:40:22;7.13;;;2.43;;
70169;SDS011;57543;45.442;9.212;2022-09-09T16:43:26;4.68;;;1.98;;
70169;SDS011;57543;45.442;9.212;2022-09-09T16:46:30;4.65;;;2.17;;
70169;SDS011;57543;45.442;9.212;2022-09-09T16:49:35;5.45;;;2.13;;
70169;SDS011;57543;45.442;9.212;2022-09-09T16:52:39;6.05;;;3.67;;
70169;SDS011;57543;45.442;9.212;2022-09-09T16:55:43;5.70;;;2.53;;
70169;SDS011;57543;45.442;9.212;2022-09-09T16:58:54;5.07;;;2.08;;
70169;SDS011;57543;45.442;9.212;2022-09-09T17:02:02;3.67;;;2.17;;
70169;SDS011;57543;45.442;9.212;2022-09-09T17:05:08;4.38;;;2.10;;
70169;SDS011;57543;45.442;9.212;2022-09-09T17:08:12;4.18;;;2.00;;
70169;SDS011;57543;45.442;9.212;2022-09-09T17:11:17;4.57;;;2.40;;
70169;SDS011;57543;45.442;9.212;2022-09-09T17:14:22;4.90;;;2.30;;
70169;SDS011;57543;45.442;9.212;2022-09-09T17:17:27;5.97;;;2.40;;
70169;SDS011;57543;45.442;9.212;2022-09-09T17:20:34;5.50;;;2.10;;
70169;SDS011;57543;45.442;9.212;2022-09-09T17:23:38;4.22;;;2.10;;
70169;SDS011;57543;45.442;9.212;2022-09-09T17:26:43;5.57;;;2.50;;
70169;SDS011;57543;45.442;9.212;2022-09-09T17:29:48;5.03;;;2.67;;
70169;SDS011;57543;45.442;9.212;2022-09-09T17:32:52;5.25;;;2.55;;
70169;SDS011;57543;45.442;9.212;2022-09-09T17:35:55;6.22;;;3.03;;
70169;SDS011;57543;45.442;9.212;2022-09-09T17:38:59;6.03;;;3.05;;
70169;SDS011;57543;45.442;9.212;2022-09-09T17:42:04;5.43;;;2.80;;
70169;SDS011;57543;45.442;9.212;2022-09-09T17:45:10;5.97;;;2.83;;
70169;SDS011;57543;45.442;9.212;2022-09-09T17:48:14;5.53;;;2.95;;
70169;SDS011;57543;45.442;9.212;2022-09-09T17:51:19;6.43;;;2.83;;
70169;SDS011;57543;45.442;9.212;2022-09-09T17:54:28;7.57;;;3.25;;
70169;SDS011;57543;45.442;9.212;2022-09-09T17:57:31;7.70;;;3.30;;
70169;SDS011;57543;45.442;9.212;2022-09-09T18:00:35;6.25;;;3.10;;
70169;SDS011;57543;45.442;9.212;2022-09-09T18:03:40;7.60;;;3.40;;
70169;SDS011;57543;45.442;9.212;2022-09-09T18:06:47;6.88;;;2.88;;
70169;SDS011;57543;45.442;9.212;2022-09-09T18:09:53;6.68;;;2.95;;
70169;SDS011;57543;45.442;9.212;2022-09-09T18:12:57;5.73;;;2.90;;
70169;SDS011;57543;45.442;9.212;2022-09-09T18:16:01;7.05;;;3.13;;
70169;SDS011;57543;45.442;9.212;2022-09-09T18:19:10;6.15;;;2.83;;
70169;SDS011;57543;45.442;9.212;2022-09-09T18:22:16;7.20;;;2.97;;
70169;SDS011;57543;45.442;9.212;2022-09-09T18:25:22;9.40;;;3.15;;
70169;SDS011;57543;45.442;9.212;2022-09-09T18:28:26;6.87;;;3.27;;
70169;SDS011;57543;45.442;9.212;2022-09-09T18:31:30;5.57;;;2.95;;
70169;SDS011;57543;45.442;9.212;2022-09-09T18:34:34;7.65;;;2.92;;
70169;SDS011;57543;45.442;9.212;2022-09-09T18:37:37;7.90;;;3.10;;
70169;SDS011;57543;45.442;9.212;2022-09-09T18:40:42;7.22;;;3.45;;
70169;SDS011;57543;45.442;9.212;2022-09-09T18:43:47;6.33;;;3.13;;
70169;SDS011;57543;45.442;9.212;2022-09-09T18:46:52;8.63;;;2.90;;
70169;SDS011;57543;45.442;9.212;2022-09-09T18:49:56;5.53;;;3.10;;
70169;SDS011;57543;45.442;9.212;2022-09-09T18:53:01;7.78;;;3.70;;
70169;SDS011;57543;45.442;9.212;2022-09-09T18:56:06;7.47;;;3.22;;
70169;SDS011;57543;45.442;9.212;2022-09-09T18:59:12;7.97;;;3.60;;
70169;SDS011;57543;45.442;9.212;2022-09-09T19:02:17;8.23;;;3.70;;
70169;SDS011;57543;45.442;9.212;2022-09-09T19:05:23;9.43;;;4.00;;
70169;SDS011;57543;45.442;9.212;2022-09-09T19:08:27;9.18;;;4.00;;
70169;SDS011;57543;45.442;9.212;2022-09-09T19:11:30;7.13;;;3.67;;
70169;SDS011;57543;45.442;9.212;2022-09-09T19:14:34;8.07;;;3.40;;
70169;SDS011;57543;45.442;9.212;2022-09-09T19:17:38;8.48;;;3.78;;
70169;SDS011;57543;45.442;9.212;2022-09-09T19:20:42;9.13;;;3.33;;
70169;SDS011;57543;45.442;9.212;2022-09-09T19:23:46;8.45;;;2.72;;
70169;SDS011;57543;45.442;9.212;2022-09-09T19:26:53;6.82;;;3.20;;
70169;SDS011;57543;45.442;9.212;2022-09-09T19:29:59;4.93;;;2.80;;
70169;SDS011;57543;45.442;9.212;2022-09-09T19:33:04;6.35;;;2.97;;
70169;SDS011;57543;45.442;9.212;2022-09-09T19:36:09;6.43;;;3.15;;
70169;SDS011;57543;45.442;9.212;2022-09-09T19:39:13;6.85;;;2.88;;
70169;SDS011;57543;45.442;9.212;2022-09-09T19:42:17;9.02;;;2.85;;
70169;SDS011;57543;45.442;9.212;2022-09-09T19:45:21;6.43;;;2.70;;
70169;SDS011;57543;45.442;9.212;2022-09-09T19:48:25;5.35;;;2.30;;
70169;SDS011;57543;45.442;9.212;2022-09-09T19:51:29;6.68;;;2.90;;
70169;SDS011;57543;45.442;9.212;2022-09-09T19:54:34;5.13;;;2.70;;
70169;SDS011;57543;45.442;9.212;2022-09-09T19:57:37;6.10;;;2.50;;
70169;SDS011;57543;45.442;9.212;2022-09-09T20:00:41;5.70;;;2.67;;
70169;SDS011;57543;45.442;9.212;2022-09-09T20:03:47;9.68;;;2.70;;
70169;SDS011;57543;45.442;9.212;2022-09-09T20:06:54;8.07;;;3.25;;
70169;SDS011;57543;45.442;9.212;2022-09-09T20:09:57;7.55;;;2.85;;
70169;SDS011;57543;45.442;9.212;2022-09-09T20:13:01;5.32;;;2.70;;
70169;SDS011;57543;45.442;9.212;2022-09-09T20:16:06;7.30;;;2.90;;
70169;SDS011;57543;45.442;9.212;2022-09-09T20:19:11;6.53;;;2.80;;
70169;SDS011;57543;45.442;9.212;2022-09-09T20:22:18;6.93;;;3.33;;